createdAt,value
2022-09-03T00:02:09.701Z,9.65
2022-09-03T00:04:57.453Z,9.58
2022-09-03T00:07:30.502Z,9.55
2022-09-03T00:10:03.000Z,9.45
2022-09-03T00:12:36.870Z,9.44
2022-09-03T00:15:08.159Z,9.58
2022-09-03T00:18:01.188Z,9.54
2022-09-03T00:20:39.188Z,9.52
2022-09-03T00:23:16.144Z,9.57
2022-09-03T00:25:47.662Z,9.53
2022-09-03T00:28:21.799Z,9.40
2022-09-03T00:30:57.265Z,9.31
2022-09-03T00:33:30.174Z,9.29
2022-09-03T00:36:02.550Z,9.33
2022-09-03T00:38:30.446Z,9.36
2022-09-03T00:41:22.990Z,9.39
2022-09-03T00:44:09.395Z,9.39
2022-09-03T00:46:42.552Z,9.24
2022-09-03T00:49:14.919Z,9.40
2022-09-03T00:52:35.793Z,9.44
2022-09-03T00:55:40.001Z,9.37
2022-09-03T00:58:39.335Z,9.30
2022-09-03T01:01:18.969Z,9.19
2022-09-03T01:04:38.216Z,9.19
2022-09-03T01:07:14.461Z,9.11
2022-09-03T01:09:56.922Z,9.09
2022-09-03T01:12:51.151Z,9.12
2022-09-03T01:15:22.706Z,9.08
2022-09-03T01:18:00.099Z,9.07
2022-09-03T01:20:55.690Z,9.12
2022-09-03T01:23:28.336Z,9.24
2022-09-03T01:26:27.496Z,9.21
2022-09-03T01:29:09.131Z,9.18
2022-09-03T01:31:46.887Z,9.22
2022-09-03T01:34:23.472Z,9.21
2022-09-03T01:36:58.233Z,9.15
2022-09-03T01:39:51.504Z,9.11
2022-09-03T01:42:39.552Z,8.99
2022-09-03T01:45:34.120Z,9.12
2022-09-03T01:48:19.456Z,8.95
2022-09-03T01:51:19.482Z,8.87
2022-09-03T01:54:20.694Z,8.92
2022-09-03T01:57:31.257Z,8.80
2022-09-03T02:00:13.237Z,8.71
2022-09-03T02:02:47.814Z,8.65
2022-09-03T02:05:23.341Z,8.64
2022-09-03T02:08:05.277Z,8.65
2022-09-03T02:10:39.319Z,8.60
2022-09-03T02:13:11.639Z,8.59
2022-09-03T02:15:42.003Z,8.51
2022-09-03T02:18:17.147Z,8.52
2022-09-03T02:20:44.819Z,8.52
2022-09-03T02:23:11.539Z,8.58
2022-09-03T02:25:46.650Z,8.50
2022-09-03T02:28:17.278Z,8.53
2022-09-03T02:30:50.871Z,8.64
2022-09-03T02:33:17.657Z,8.58
2022-09-03T02:35:44.378Z,8.66
2022-09-03T02:38:16.906Z,8.74
2022-09-03T02:40:44.480Z,8.71
2022-09-03T02:43:35.326Z,8.67
2022-09-03T02:46:04.120Z,8.61
2022-09-03T02:48:30.796Z,8.56
2022-09-03T02:50:57.442Z,8.44
2022-09-03T02:53:28.252Z,8.47
2022-09-03T02:56:01.748Z,8.51
2022-09-03T02:58:29.294Z,8.54
2022-09-03T03:00:55.850Z,8.59
2022-09-03T03:03:22.412Z,8.46
2022-09-03T03:05:51.770Z,8.40
2022-09-03T03:08:21.497Z,8.38
2022-09-03T03:10:49.512Z,8.31
2022-09-03T03:13:16.604Z,8.41
2022-09-03T03:15:43.437Z,8.46
2022-09-03T03:18:12.287Z,8.58
2022-09-03T03:20:38.992Z,8.55
2022-09-03T03:23:06.404Z,8.54
2022-09-03T03:25:34.595Z,8.75
2022-09-03T03:28:01.272Z,8.85
2022-09-03T03:30:28.388Z,8.99
2022-09-03T03:32:55.222Z,8.95
2022-09-03T03:35:22.343Z,8.96
2022-09-03T03:37:49.010Z,8.91
2022-09-03T03:40:15.867Z,8.91
2022-09-03T03:42:42.619Z,9.05
2022-09-03T03:45:12.946Z,9.16
2022-09-03T03:47:39.478Z,9.30
2022-09-03T03:50:06.480Z,9.27
2022-09-03T03:52:33.177Z,9.30
2022-09-03T03:54:59.708Z,9.47
2022-09-03T03:57:26.407Z,9.51
2022-09-03T03:59:52.915Z,9.48
2022-09-03T04:02:19.565Z,9.51
2022-09-03T04:04:46.168Z,9.53
2022-09-03T04:07:12.723Z,9.59
2022-09-03T04:09:39.237Z,9.57
2022-09-03T04:12:08.810Z,9.62
2022-09-03T04:14:35.543Z,9.66
2022-09-03T04:17:03.149Z,9.65
2022-09-03T04:19:30.282Z,9.61
2022-09-03T04:21:57.258Z,9.65
2022-09-03T04:24:24.001Z,9.73
2022-09-03T04:26:50.690Z,9.81
2022-09-03T04:29:18.355Z,9.89
2022-09-03T04:32:04.929Z,9.88
2022-09-03T04:34:32.115Z,9.94
2022-09-03T04:36:59.201Z,9.99
2022-09-03T04:39:26.188Z,10.03
2022-09-03T04:41:52.830Z,10.00
2022-09-03T04:44:19.429Z,9.92
2022-09-03T04:46:47.894Z,9.90
2022-09-03T04:49:14.814Z,9.86
2022-09-03T04:51:41.643Z,9.79
2022-09-03T04:54:09.936Z,9.72
2022-09-03T04:56:40.142Z,9.63
2022-09-03T04:59:08.115Z,9.65
2022-09-03T05:01:37.376Z,9.68
2022-09-03T05:04:05.235Z,9.62
2022-09-03T05:06:33.348Z,9.63
2022-09-03T05:09:00.765Z,9.68
2022-09-03T05:11:29.010Z,9.65
2022-09-03T05:13:57.659Z,9.62
2022-09-03T05:16:25.930Z,9.74
2022-09-03T05:18:54.134Z,9.77
2022-09-03T05:21:21.084Z,9.91
2022-09-03T05:23:50.486Z,10.40
2022-09-03T05:26:28.803Z,12.56
2022-09-03T05:28:58.952Z,15.20
2022-09-03T05:31:26.759Z,16.63
2022-09-03T05:33:58.378Z,17.72
2022-09-03T05:36:26.723Z,18.20
2022-09-03T05:38:54.307Z,19.00
2022-09-03T05:41:22.011Z,19.81
2022-09-03T05:43:55.252Z,19.79
2022-09-03T05:46:27.617Z,20.60
2022-09-03T05:48:54.241Z,20.00
2022-09-03T05:51:20.800Z,20.77
2022-09-03T05:53:49.282Z,21.14
2022-09-03T05:56:19.089Z,21.49
2022-09-03T05:58:46.782Z,21.19
2022-09-03T06:01:21.678Z,21.78
2022-09-03T06:03:54.562Z,22.86
2022-09-03T06:06:31.609Z,22.58
2022-09-03T06:09:00.330Z,23.97
2022-09-03T06:11:29.483Z,23.65
2022-09-03T06:13:57.667Z,24.82
2022-09-03T06:16:30.586Z,24.25
2022-09-03T06:18:59.859Z,25.02
2022-09-03T06:21:27.143Z,25.11
2022-09-03T06:23:59.625Z,25.50
2022-09-03T06:26:28.845Z,24.21
2022-09-03T06:28:57.085Z,25.29
2022-09-03T06:31:24.320Z,25.67
2022-09-03T06:33:51.889Z,25.45
2022-09-03T06:36:19.955Z,25.26
2022-09-03T06:38:47.548Z,25.16
2022-09-03T06:41:26.192Z,25.93
2022-09-03T06:44:04.727Z,26.03
2022-09-03T06:46:35.064Z,25.54
2022-09-03T06:49:02.024Z,24.43
2022-09-03T06:51:30.564Z,23.46
2022-09-03T06:54:02.423Z,25.42
2022-09-03T06:56:29.278Z,25.72
2022-09-03T06:59:00.732Z,26.16
2022-09-03T07:01:31.385Z,27.39
2022-09-03T07:04:05.435Z,26.97
2022-09-03T07:06:37.163Z,26.37
2022-09-03T07:09:03.807Z,27.43
2022-09-03T07:11:31.372Z,27.86
2022-09-03T07:13:58.947Z,27.61
2022-09-03T07:16:35.542Z,28.13
2022-09-03T07:19:04.626Z,28.23
2022-09-03T07:21:34.130Z,29.52
2022-09-03T07:24:01.109Z,30.92
2022-09-03T07:26:30.536Z,28.41
2022-09-03T07:28:58.343Z,26.02
2022-09-03T07:31:29.258Z,25.99
2022-09-03T07:34:00.148Z,26.35
2022-09-03T07:36:28.985Z,26.91
2022-09-03T07:38:59.522Z,27.84
2022-09-03T07:41:28.862Z,28.66
2022-09-03T07:43:57.124Z,30.11
2022-09-03T07:46:27.359Z,30.35
2022-09-03T07:48:58.714Z,30.69
2022-09-03T07:51:29.821Z,32.74
2022-09-03T07:53:58.833Z,31.50
2022-09-03T07:56:27.102Z,32.95
2022-09-03T07:58:56.591Z,31.00
2022-09-03T08:01:25.289Z,31.34
2022-09-03T08:06:45.214Z,31.52
2022-09-03T08:09:13.742Z,30.21
2022-09-03T08:11:43.514Z,29.71
2022-09-03T08:14:12.348Z,30.28
2022-09-03T08:16:44.411Z,27.53
2022-09-03T08:19:11.965Z,27.60
2022-09-03T08:21:38.644Z,26.89
2022-09-03T08:24:06.439Z,26.92
2022-09-03T08:26:35.932Z,25.71
2022-09-03T08:29:03.663Z,26.29
2022-09-03T08:31:32.319Z,25.55
2022-09-03T08:34:06.532Z,26.93
2022-09-03T08:36:36.429Z,27.79
2022-09-03T08:39:09.589Z,29.88
2022-09-03T08:41:43.509Z,30.97
2022-09-03T08:44:22.114Z,31.20
2022-09-03T08:46:58.835Z,32.44
2022-09-03T08:49:34.000Z,31.55
2022-09-03T08:52:06.012Z,33.42
2022-09-03T08:54:33.116Z,34.59
2022-09-03T08:57:03.356Z,31.32
2022-09-03T08:59:32.985Z,32.30
2022-09-03T09:02:21.797Z,31.40
2022-09-03T09:05:00.318Z,30.54
2022-09-03T09:08:04.738Z,29.81
2022-09-03T09:10:33.885Z,29.58
2022-09-03T09:13:16.320Z,29.30
2022-09-03T09:16:15.204Z,29.71
2022-09-03T09:19:07.842Z,31.02
2022-09-03T09:21:45.988Z,31.74
2022-09-03T09:24:23.305Z,33.74
2022-09-03T09:26:56.069Z,33.38
2022-09-03T09:29:22.848Z,33.11
2022-09-03T09:31:49.855Z,31.90
2022-09-03T09:34:16.407Z,31.82
2022-09-03T09:36:48.402Z,31.47
2022-09-03T09:39:19.353Z,32.31
2022-09-03T09:42:05.455Z,32.80
2022-09-03T09:44:32.054Z,32.74
2022-09-03T09:47:06.457Z,32.37
2022-09-03T09:49:51.097Z,31.97
2022-09-03T09:52:19.425Z,30.88
2022-09-03T09:54:46.912Z,30.59
2022-09-03T09:57:22.413Z,31.16
2022-09-03T09:59:50.416Z,29.45
2022-09-03T10:02:24.034Z,30.23
2022-09-03T10:04:50.759Z,28.61
2022-09-03T10:11:07.964Z,30.02
2022-09-03T10:13:43.333Z,28.39
2022-09-03T10:16:15.890Z,27.61
2022-09-03T10:18:48.467Z,27.89
2022-09-03T10:21:27.774Z,27.94
2022-09-03T10:24:21.829Z,28.49
2022-09-03T10:26:48.385Z,28.11
2022-09-03T10:29:22.119Z,28.09
2022-09-03T10:32:37.832Z,28.21
2022-09-03T10:35:43.254Z,28.46
2022-09-03T10:38:36.815Z,28.49
2022-09-03T10:41:59.858Z,28.18
2022-09-03T10:44:53.310Z,28.59
2022-09-03T10:47:47.573Z,27.09
2022-09-03T10:50:23.265Z,29.02
2022-09-03T10:53:16.561Z,28.48
2022-09-03T10:56:04.217Z,28.46
2022-09-03T10:58:30.790Z,29.19
2022-09-03T11:01:10.925Z,29.49
2022-09-03T11:03:39.007Z,29.71
2022-09-03T11:06:16.972Z,29.87
2022-09-03T11:09:11.820Z,29.30
2022-09-03T11:11:45.351Z,28.37
2022-09-03T11:14:16.028Z,27.38
2022-09-03T11:16:57.604Z,27.37
2022-09-03T11:19:54.064Z,27.02
2022-09-03T11:22:23.267Z,27.77
2022-09-03T11:24:56.613Z,27.75
2022-09-03T11:27:41.144Z,28.04
2022-09-03T11:30:10.377Z,27.87
2022-09-03T11:32:56.079Z,27.75
2022-09-03T11:35:28.134Z,27.56
2022-09-03T11:38:05.575Z,27.18
2022-09-03T11:40:34.901Z,26.97
2022-09-03T11:43:28.978Z,27.06
2022-09-03T11:46:06.580Z,28.52
2022-09-03T11:48:45.463Z,28.69
2022-09-03T11:51:33.316Z,28.64
2022-09-03T11:54:01.896Z,28.46
2022-09-03T11:56:31.009Z,28.32
2022-09-03T11:59:19.281Z,27.71
2022-09-03T12:02:01.606Z,28.23
2022-09-03T12:05:05.995Z,27.50
2022-09-03T12:07:41.632Z,27.89
2022-09-03T12:10:21.752Z,27.71
2022-09-03T12:13:06.597Z,28.40
2022-09-03T12:15:51.688Z,29.35
2022-09-03T12:18:26.059Z,29.50
2022-09-03T12:20:52.783Z,29.51
2022-09-03T12:23:28.341Z,29.95
2022-09-03T12:25:55.010Z,30.56
2022-09-03T12:28:23.532Z,30.67
2022-09-03T12:30:53.274Z,31.10
2022-09-03T12:33:23.227Z,30.36
2022-09-03T12:35:58.716Z,29.13
2022-09-03T12:38:26.777Z,27.75
2022-09-03T12:43:42.529Z,26.33
2022-09-03T12:46:14.840Z,25.30
2022-09-03T12:48:47.364Z,26.00
2022-09-03T12:54:01.370Z,27.01
2022-09-03T12:56:29.013Z,28.36
2022-09-03T12:58:59.366Z,29.07
2022-09-03T13:01:31.805Z,28.34
2022-09-03T13:04:15.244Z,27.22
2022-09-03T13:06:49.928Z,27.72
2022-09-03T13:09:20.387Z,27.66
2022-09-03T13:11:46.789Z,27.56
2022-09-03T13:14:14.149Z,27.58
2022-09-03T13:16:46.764Z,28.54
2022-09-03T13:19:22.247Z,28.27
2022-09-03T13:21:48.758Z,28.58
2022-09-03T13:24:37.777Z,30.32
2022-09-03T13:27:22.972Z,29.45
2022-09-03T13:30:11.964Z,29.00
2022-09-03T13:32:40.648Z,30.54
2022-09-03T13:35:19.385Z,29.75
2022-09-03T13:37:54.724Z,29.13
2022-09-03T13:40:45.448Z,28.08
2022-09-03T13:43:20.805Z,27.22
2022-09-03T13:46:20.909Z,26.63
2022-09-03T13:49:08.079Z,26.64
2022-09-03T13:51:40.464Z,27.11
2022-09-03T13:54:48.045Z,27.83
2022-09-03T13:57:24.441Z,27.73
2022-09-03T14:00:10.153Z,27.50
2022-09-03T14:02:45.928Z,26.94
2022-09-03T14:05:41.361Z,26.37
2022-09-03T14:08:32.716Z,25.74
2022-09-03T14:11:36.835Z,24.92
2022-09-03T14:14:12.616Z,25.25
2022-09-03T14:16:55.368Z,25.16
2022-09-03T14:19:37.213Z,25.18
2022-09-03T14:22:25.840Z,24.97
2022-09-03T14:24:56.251Z,25.09
2022-09-03T14:27:31.597Z,25.32
2022-09-03T14:30:05.040Z,25.31
2022-09-03T14:33:13.388Z,25.46
2022-09-03T14:36:25.906Z,25.56
2022-09-03T14:39:39.552Z,25.66
2022-09-03T14:42:44.675Z,25.61
2022-09-03T14:45:13.956Z,26.37
2022-09-03T14:48:21.627Z,26.24
2022-09-03T14:51:25.711Z,26.47
2022-09-03T14:54:29.985Z,26.37
2022-09-03T14:57:22.523Z,26.20
2022-09-03T15:00:20.136Z,26.13
2022-09-03T15:03:16.287Z,25.46
2022-09-03T15:06:12.164Z,25.17
2022-09-03T15:09:03.364Z,24.50
2022-09-03T15:11:34.318Z,24.39
2022-09-03T15:14:10.470Z,24.01
2022-09-03T15:16:59.837Z,24.09
2022-09-03T15:19:47.796Z,24.04
2022-09-03T15:22:29.769Z,23.71
2022-09-03T15:25:08.551Z,23.74
2022-09-03T15:27:56.781Z,23.40
2022-09-03T15:30:23.686Z,23.15
2022-09-03T15:32:55.861Z,23.10
2022-09-03T15:35:33.671Z,23.02
2022-09-03T15:38:09.113Z,22.97
2022-09-03T15:40:48.957Z,22.96
2022-09-03T15:43:21.870Z,22.88
2022-09-03T15:45:59.962Z,22.90
2022-09-03T15:48:29.421Z,22.66
2022-09-03T15:51:22.457Z,22.72
2022-09-03T15:54:07.542Z,22.57
2022-09-03T15:56:53.266Z,22.36
2022-09-03T15:59:25.572Z,22.19
2022-09-03T16:02:11.027Z,22.08
2022-09-03T16:04:50.536Z,21.97
2022-09-03T16:07:29.148Z,21.77
2022-09-03T16:10:26.343Z,21.60
2022-09-03T16:13:05.893Z,21.56
2022-09-03T16:15:47.005Z,21.61
2022-09-03T16:19:07.951Z,21.56
2022-09-03T16:21:42.877Z,21.23
2022-09-03T16:24:30.306Z,21.28
2022-09-03T16:27:04.646Z,21.17
2022-09-03T16:29:31.744Z,20.92
2022-09-03T16:32:36.050Z,20.69
2022-09-03T16:35:21.711Z,20.44
2022-09-03T16:38:21.969Z,19.95
2022-09-03T16:40:53.553Z,19.36
2022-09-03T16:43:43.262Z,18.90
2022-09-03T16:46:09.911Z,18.60
2022-09-03T16:49:10.225Z,18.31
2022-09-03T16:52:05.705Z,17.77
2022-09-03T16:54:55.936Z,17.49
2022-09-03T16:57:38.621Z,17.21
2022-09-03T17:00:10.521Z,17.03
2022-09-03T17:03:25.130Z,16.84
2022-09-03T17:06:07.156Z,16.71
2022-09-03T17:09:01.281Z,16.74
2022-09-03T17:11:42.489Z,16.62
2022-09-03T17:14:18.030Z,16.56
2022-09-03T17:17:08.576Z,16.55
2022-09-03T17:32:12.074Z,16.05
2022-09-03T18:03:18.479Z,15.19
2022-09-03T18:06:26.665Z,15.18
2022-09-03T18:09:01.642Z,15.02
2022-09-03T18:11:37.344Z,14.98
2022-09-03T18:14:34.756Z,14.95
2022-09-03T18:28:29.066Z,14.90
2022-09-03T18:39:11.249Z,14.86
2022-09-03T18:49:34.347Z,14.61
2022-09-03T18:56:15.786Z,14.34
2022-09-03T19:03:00.201Z,14.08
2022-09-03T19:10:19.501Z,13.98
2022-09-03T19:17:09.724Z,13.80
2022-09-03T19:24:18.246Z,13.74
2022-09-03T19:38:15.272Z,13.48
2022-09-03T19:48:24.665Z,13.31
2022-09-03T19:59:40.252Z,13.35
2022-09-03T20:06:28.103Z,13.26
2022-09-03T20:28:29.694Z,13.11
2022-09-03T20:49:08.519Z,13.10
2022-09-03T21:06:42.624Z,12.80
2022-09-03T21:09:19.193Z,12.82
2022-09-03T21:15:49.004Z,12.71
2022-09-03T21:22:23.581Z,12.63
2022-09-03T21:24:58.839Z,12.55
2022-09-03T21:27:39.600Z,12.60
2022-09-03T21:30:09.591Z,12.63
2022-09-03T21:32:44.359Z,12.58
2022-09-03T21:35:27.547Z,12.51
2022-09-03T21:38:07.021Z,12.38
2022-09-03T21:41:11.352Z,12.38
2022-09-03T21:43:58.203Z,12.40
2022-09-03T21:46:31.175Z,12.37
2022-09-03T21:49:49.544Z,12.26
2022-09-03T21:52:24.691Z,12.32
2022-09-03T21:54:52.191Z,12.29
2022-09-03T21:57:46.233Z,12.21
2022-09-03T22:03:29.724Z,12.07
2022-09-03T22:06:10.654Z,11.99
2022-09-03T22:09:11.289Z,12.09
2022-09-03T22:12:13.392Z,12.11
2022-09-03T22:14:48.156Z,12.09
2022-09-03T22:17:20.519Z,12.04
2022-09-03T22:23:04.520Z,11.97
2022-09-03T22:26:13.222Z,11.83
2022-09-03T22:29:22.281Z,11.79
2022-09-03T22:32:32.690Z,11.95
2022-09-03T22:35:46.792Z,11.77
2022-09-03T22:38:48.772Z,11.81
2022-09-03T22:41:39.137Z,11.76
2022-09-03T22:44:27.029Z,11.78
2022-09-03T22:47:25.937Z,11.81
2022-09-03T22:49:59.389Z,11.85
2022-09-03T22:52:48.361Z,11.84
2022-09-03T22:55:23.076Z,11.79
2022-09-03T22:57:55.469Z,11.65
2022-09-03T23:00:39.421Z,11.58
2022-09-03T23:03:55.616Z,11.49
2022-09-03T23:06:53.356Z,11.49
2022-09-03T23:09:25.187Z,11.54
2022-09-03T23:11:58.118Z,11.55
2022-09-03T23:14:32.529Z,11.50
2022-09-03T23:20:23.229Z,11.40
2022-09-03T23:32:31.273Z,11.28
2022-09-03T23:35:02.236Z,11.28
2022-09-03T23:57:18.103Z,11.22
2022-09-03T23:59:53.357Z,11.06
